KDSV/DSV METAR and TAF weather

Enter ICAO airport designator
Station Type Date Time Source
KDSV METAR 2019/10/21 21:54 UTC NOAA

KDSV 212154Z AUTO 15010KT 10SM CLR 18/06 A2996 RMK AO2 SLP154 T01830061


Station Type Date Time Source
KDSV Decoded METAR 2019/10/21 21:54 UTC NOAA

DANSVILLE MUNICIPAL AIRPORT, NY, United States (KDSV) 42-34N 077-43W 198M
Oct 21, 2019 - 05:54 PM EDT / 2019.10.21 2154 UTC
Wind: from the SSE (150 degrees) at 12 MPH (10 KT):0
Visibility: 10 mile(s):0
Sky conditions: clear
Temperature: 64.9 F (18.3 C)
Dew Point: 43.0 F (6.1 C)
Relative Humidity: 44%
Pressure (altimeter): 29.96 in. Hg (1014 hPa)
ob: KDSV 212154Z AUTO 15010KT 10SM CLR 18/06 A2996 RMK AO2 SLP154 T01830061
cycle: 22

Station Type Date Time Source
KDSV TAF UTC NOAA

Error!

Example: see airport list